NIEUW!!! Volg onze weer- en natuurfoto's op Instagram @ weerstationmaaseik.be

WS Maaseik 1 Meer informatie WS Maaseik 1


WS Maaseik 2 Meer informatie WS Maaseik 2


Regen radar Meer informatie rain snow radar


Bezoek onze andere website:

Vorige versie
weerstation Maaseik


Bezoek ook eens deze sites:

Weerstation Geleen

Weerstation Luyksgestel



Extreme hitte van: 25-06-2019 11:59 tot: 26-06-2019 23:59 waarschuwing voor: Extreme hitte niveau: Oranje info button

METAR rapporten vliegvelden

   
EBBR - Brussels International Airport, Belgium
Afstand tot: W 14 km
Gewijzigd: 25-06-2019 12:20
Helder  
Helder  
   Wind: Zuiden 13 km/h
Wind: Zuiden 13 km/h
Temperatuur: 30°C
Gevoelstemperatuur: 32°C
Dauwpunt: 20°C
Vochtigheid: 55%
Barometer: 1016 hPa
Zicht: meer dan 10 km
Bewolking: Helder ft
EBBR 251020Z 19007KT 150V220 CAVOK 30/20 Q1016 NOSIG
EBBE - Beauvechain (Bevekom), Belgium
Afstand tot: ZZO 17 km
Gewijzigd: 25-06-2019 12:25
Grotendeels bewolkt  
Grotendeels bewolkt  
   Wind: Zuiden 11.1 km/h
Wind: Zuiden 11.1 km/h
Temperatuur: 30°C
Gevoelstemperatuur: 31°C
Dauwpunt: 19°C
Vochtigheid: 52%
Barometer: 1016 hPa
Bewolking: Mostly Cloudy
Zicht: meer dan 10 km
Bewolking: Grotendeels bewolkt 25000 ft
EBBE 251025Z 18006KT 9999 BKN250 30/19 Q1016 BLU BLU
EBDT - Schaffen, Belgium
Afstand tot: ONO 29 km
Gewijzigd: 25-06-2019 12:25
Gedeeltelijk bewolkt  
Gedeeltelijk bewolkt  
   Wind: ZZO 13 km/h
Wind: ZZO 13 km/h
Temperatuur: 31°C
Gevoelstemperatuur: 32°C
Dauwpunt: 19°C
Vochtigheid: 49%
Barometer: 1016 hPa
Bewolking: Partly Cloudy
Zicht: meer dan 10 km
Bewolking: Gedeeltelijk bewolkt 27000 ft
EBDT 251025Z 16007KT 9999 SCT270 31/19 Q1016 BLU BLU
EBAW - Antwerp/Deurne, Belgium
Afstand tot: NNW 38 km
Gewijzigd: 25-06-2019 12:20
Helder  
Helder  
   Wind: ZZO 11.1 km/h
Wind: ZZO 11.1 km/h
Temperatuur: 31°C
Gevoelstemperatuur: 32°C
Dauwpunt: 19°C
Vochtigheid: 49%
Barometer: 1015 hPa
Zicht: meer dan 10 km
Bewolking: Helder ft
EBAW 251020Z 15006KT 120V200 CAVOK 31/19 Q1015 NOSIG
EBCI - Charleroi/Gosselies, Belgium
Afstand tot: ZZW 51 km
Gewijzigd: 25-06-2019 12:20
Helder  
Helder  
   Wind: Zuiden 22.2 km/h
Wind: Zuiden 22.2 km/h
Temperatuur: 30°C
Gevoelstemperatuur: 31°C
Dauwpunt: 19°C
Vochtigheid: 52%
Barometer: 1017 hPa
Zicht: meer dan 10 km
Bewolking: Helder ft
EBCI 251020Z 17012KT 140V200 CAVOK 30/19 Q1017 NOSIG
EBLG - Bierset/Liege, Belgium
Afstand tot: OZO 60 km
Gewijzigd: 25-06-2019 12:20
Helder  
Helder  
   Wind: Zuiden 16.7 km/h
Wind: Zuiden 16.7 km/h
Temperatuur: 31°C
Gevoelstemperatuur: 31°C
Dauwpunt: 17°C
Vochtigheid: 43%
Barometer: 1017 hPa
Zicht: meer dan 10 km
Bewolking: Helder ft
EBLG 251020Z 17009KT 140V200 CAVOK 31/17 Q1017

Script ontwikkeld door  Saratoga-weather.org Aangepast voor de template door  Weerstation Leuven

U vindt ons ook hier:

Het Weer Aktueel

Weather Underground

AWEKAS